Campo, California
Current Conditions -  °F | °C
As of 1:44 PM on Friday 24 Oct 2014 (Local Time) from MMTJ Reporting Station
Clear Clear  
Wind Chill: 86°   Ceiling: Unl
Heat Index: 86°   Visibility: 8mi
Dew Point: 39°   Wind: 12mph
Humidity: 19%   Direction: 250°WSW
Pressure: 29.96"   Gusts: NA
Location:  32.61°N, 116.47°W
Report Text: MMTJ 242044Z 25010KT 8SM SKC 30/04 A2996 RMK SLP148 57011 954 HZY
Loading
Personal Weather Stations






























Interactive Weather Map
Tropical Storm Tracking
New forecast layout! Learn more

10-Day Weather Forecast

Advertisements
Track Severe Weather on mobile